KMDD

Details ICAO KMDD
Name MIDLAND AIRPARK
Region United States
Timezone America/Chicago (UTC-5.0)
Plans Departing 8
Arriving 7
Stats Elevation 2,803 ft / 854 m (AMSL)
Location 32.036194° -102.101022°
Runways 2
Magnetic Variation 6.157° E
Sunrise 2018-05-26 11:46:29 UTC / 2018-05-26 06:46:29 Local
Sunset 2018-05-27 01:47:21 UTC / 2018-05-26 20:47:21 Local
Advertisement - Login to hide

Runways

ID Width Length Bearing (true) Bearing (mag) Surface Threshold Offset Overrun Length
07 75 ft / 23 m 5,014 ft / 1,528 m 74.89° 68.73° Asphalt 0 ft / 0 m 0 ft / 0 m
16 75 ft / 23 m 3,988 ft / 1,216 m 165.00° 158.84° Asphalt 0 ft / 0 m 0 ft / 0 m
25 75 ft / 23 m 5,014 ft / 1,528 m 254.90° 248.74° Asphalt 0 ft / 0 m 0 ft / 0 m
34 75 ft / 23 m 3,988 ft / 1,216 m 345.00° 338.84° Asphalt 0 ft / 0 m 0 ft / 0 m

Map

Weather


0- 5 10 15 20 25 30 35+ Temperature / ° C

Clouds and Precipitation
Forecast for 2018-05-26 18:00 UTC. Updated 5 hours ago

Ground ~20,000 ft ~40,000 ft Winds

METAR

KMDD 262155Z AUTO 10009KT 10SM 42/M03 A2980 RMK AO2 T04221034

TAF

Not found

Frequencies

Recorded 118.12 MHz AWOS 3
Clearance 121.80 MHz CLNC DEL
Unicom 122.70 MHz CTAF/UNICOM
Approach 124.60 MHz APP/DEP
Warning: Do not use this data for real-world aviation or navigation. No guarantee of current accuracy is given.